sensor_id;sensor_type;location;lat;lon;timestamp;temperature;humidity
23597;DHT22;40226;50.874;4.394;2023-04-06T00:01:35;10.10;1.00
23597;DHT22;40226;50.874;4.394;2023-04-06T00:04:01;9.80;1.00
23597;DHT22;40226;50.874;4.394;2023-04-06T00:06:26;9.90;1.00
23597;DHT22;40226;50.874;4.394;2023-04-06T00:08:53;9.90;1.00
23597;DHT22;40226;50.874;4.394;2023-04-06T00:11:19;9.90;1.00
23597;DHT22;40226;50.874;4.394;2023-04-06T00:13:45;9.90;1.00
23597;DHT22;40226;50.874;4.394;2023-04-06T00:16:10;9.80;1.00
23597;DHT22;40226;50.874;4.394;2023-04-06T00:18:36;9.80;1.00
23597;DHT22;40226;50.874;4.394;2023-04-06T00:21:02;9.80;1.00
23597;DHT22;40226;50.874;4.394;2023-04-06T00:23:28;9.80;1.00
23597;DHT22;40226;50.874;4.394;2023-04-06T00:25:53;9.90;1.00
23597;DHT22;40226;50.874;4.394;2023-04-06T00:28:19;9.80;1.00
23597;DHT22;40226;50.874;4.394;2023-04-06T00:30:51;9.80;1.00
23597;DHT22;40226;50.874;4.394;2023-04-06T00:33:18;10.00;1.00
23597;DHT22;40226;50.874;4.394;2023-04-06T00:35:44;10.00;1.00
23597;DHT22;40226;50.874;4.394;2023-04-06T00:38:09;10.10;1.00
23597;DHT22;40226;50.874;4.394;2023-04-06T00:40:35;10.10;1.00
23597;DHT22;40226;50.874;4.394;2023-04-06T00:43:01;10.00;1.00
23597;DHT22;40226;50.874;4.394;2023-04-06T00:45:27;10.00;1.00
23597;DHT22;40226;50.874;4.394;2023-04-06T00:47:52;9.90;1.00
23597;DHT22;40226;50.874;4.394;2023-04-06T00:50:18;9.90;1.00
23597;DHT22;40226;50.874;4.394;2023-04-06T00:52:44;9.90;1.00
23597;DHT22;40226;50.874;4.394;2023-04-06T00:55:09;9.80;1.00
23597;DHT22;40226;50.874;4.394;2023-04-06T00:57:35;9.90;1.00
23597;DHT22;40226;50.874;4.394;2023-04-06T01:00:02;9.80;1.00
23597;DHT22;40226;50.874;4.394;2023-04-06T01:02:28;9.80;1.00
23597;DHT22;40226;50.874;4.394;2023-04-06T01:04:54;9.70;18.10
23597;DHT22;40226;50.874;4.394;2023-04-06T01:07:20;9.90;28.60
23597;DHT22;40226;50.874;4.394;2023-04-06T01:09:45;9.80;27.40
23597;DHT22;40226;50.874;4.394;2023-04-06T01:12:11;9.80;53.70
23597;DHT22;40226;50.874;4.394;2023-04-06T01:14:36;9.90;56.50
23597;DHT22;40226;50.874;4.394;2023-04-06T01:17:02;9.90;33.10
23597;DHT22;40226;50.874;4.394;2023-04-06T01:19:28;9.80;56.30
23597;DHT22;40226;50.874;4.394;2023-04-06T01:21:54;9.90;87.70
23597;DHT22;40226;50.874;4.394;2023-04-06T01:24:20;9.90;52.40
23597;DHT22;40226;50.874;4.394;2023-04-06T01:26:46;9.80;53.90
23597;DHT22;40226;50.874;4.394;2023-04-06T01:29:12;9.50;77.10
23597;DHT22;40226;50.874;4.394;2023-04-06T01:31:38;9.50;97.30
23597;DHT22;40226;50.874;4.394;2023-04-06T01:34:04;9.40;99.90
23597;DHT22;40226;50.874;4.394;2023-04-06T01:36:30;9.50;99.90
23597;DHT22;40226;50.874;4.394;2023-04-06T01:38:56;9.50;99.90
23597;DHT22;40226;50.874;4.394;2023-04-06T01:41:21;9.40;99.90
23597;DHT22;40226;50.874;4.394;2023-04-06T01:43:48;9.40;99.90
23597;DHT22;40226;50.874;4.394;2023-04-06T01:46:14;9.50;99.90
23597;DHT22;40226;50.874;4.394;2023-04-06T01:48:40;9.40;99.90
23597;DHT22;40226;50.874;4.394;2023-04-06T01:51:05;9.40;99.90
23597;DHT22;40226;50.874;4.394;2023-04-06T01:53:31;9.30;99.90
23597;DHT22;40226;50.874;4.394;2023-04-06T01:55:57;9.20;99.90
23597;DHT22;40226;50.874;4.394;2023-04-06T01:58:23;9.20;99.90
23597;DHT22;40226;50.874;4.394;2023-04-06T02:00:48;9.20;99.90
23597;DHT22;40226;50.874;4.394;2023-04-06T02:03:14;9.00;99.90
23597;DHT22;40226;50.874;4.394;2023-04-06T02:05:40;9.00;99.90
23597;DHT22;40226;50.874;4.394;2023-04-06T02:08:06;9.00;99.90
23597;DHT22;40226;50.874;4.394;2023-04-06T02:10:32;9.00;99.90
23597;DHT22;40226;50.874;4.394;2023-04-06T02:12:58;9.00;99.90
23597;DHT22;40226;50.874;4.394;2023-04-06T02:15:24;9.00;99.90
23597;DHT22;40226;50.874;4.394;2023-04-06T02:17:51;8.90;99.90
23597;DHT22;40226;50.874;4.394;2023-04-06T02:20:17;9.00;99.90
23597;DHT22;40226;50.874;4.394;2023-04-06T02:22:43;9.10;99.90
23597;DHT22;40226;50.874;4.394;2023-04-06T02:25:09;9.10;99.90
23597;DHT22;40226;50.874;4.394;2023-04-06T02:27:37;9.10;99.90
23597;DHT22;40226;50.874;4.394;2023-04-06T02:30:03;9.10;99.90
23597;DHT22;40226;50.874;4.394;2023-04-06T02:32:29;9.10;99.90
23597;DHT22;40226;50.874;4.394;2023-04-06T02:34:54;9.10;99.90
23597;DHT22;40226;50.874;4.394;2023-04-06T02:37:20;9.20;99.90
23597;DHT22;40226;50.874;4.394;2023-04-06T02:39:46;9.30;99.90
23597;DHT22;40226;50.874;4.394;2023-04-06T02:42:12;9.30;99.90
23597;DHT22;40226;50.874;4.394;2023-04-06T02:44:37;9.30;99.90
23597;DHT22;40226;50.874;4.394;2023-04-06T02:47:03;9.30;99.90
23597;DHT22;40226;50.874;4.394;2023-04-06T02:49:29;9.50;99.90
23597;DHT22;40226;50.874;4.394;2023-04-06T02:51:54;9.60;99.90
23597;DHT22;40226;50.874;4.394;2023-04-06T02:54:20;9.60;99.90
23597;DHT22;40226;50.874;4.394;2023-04-06T02:56:45;9.70;99.90
23597;DHT22;40226;50.874;4.394;2023-04-06T02:59:11;9.60;99.90
23597;DHT22;40226;50.874;4.394;2023-04-06T03:01:37;9.30;99.90
23597;DHT22;40226;50.874;4.394;2023-04-06T03:04:03;9.20;99.90
23597;DHT22;40226;50.874;4.394;2023-04-06T03:06:29;9.30;99.90
23597;DHT22;40226;50.874;4.394;2023-04-06T03:08:55;9.30;99.90
23597;DHT22;40226;50.874;4.394;2023-04-06T03:11:21;9.30;99.90
23597;DHT22;40226;50.874;4.394;2023-04-06T03:13:46;9.30;99.90
23597;DHT22;40226;50.874;4.394;2023-04-06T03:16:12;9.20;99.90
23597;DHT22;40226;50.874;4.394;2023-04-06T03:18:38;9.10;99.90
23597;DHT22;40226;50.874;4.394;2023-04-06T03:21:03;9.10;1.00
23597;DHT22;40226;50.874;4.394;2023-04-06T03:23:29;9.10;1.00
23597;DHT22;40226;50.874;4.394;2023-04-06T03:25:55;9.10;1.00
23597;DHT22;40226;50.874;4.394;2023-04-06T03:28:20;9.20;1.00
23597;DHT22;40226;50.874;4.394;2023-04-06T03:30:46;9.20;1.00
23597;DHT22;40226;50.874;4.394;2023-04-06T03:33:12;9.10;1.00
23597;DHT22;40226;50.874;4.394;2023-04-06T03:35:37;9.30;1.00
23597;DHT22;40226;50.874;4.394;2023-04-06T03:38:04;9.20;1.00
23597;DHT22;40226;50.874;4.394;2023-04-06T03:40:30;9.10;1.00
23597;DHT22;40226;50.874;4.394;2023-04-06T03:42:56;9.00;1.00
23597;DHT22;40226;50.874;4.394;2023-04-06T03:45:21;9.10;1.00
23597;DHT22;40226;50.874;4.394;2023-04-06T03:47:47;9.20;1.00
23597;DHT22;40226;50.874;4.394;2023-04-06T03:50:12;9.00;1.00
23597;DHT22;40226;50.874;4.394;2023-04-06T03:52:38;8.90;1.00
23597;DHT22;40226;50.874;4.394;2023-04-06T03:55:04;8.80;1.00
23597;DHT22;40226;50.874;4.394;2023-04-06T03:57:30;8.80;1.00
23597;DHT22;40226;50.874;4.394;2023-04-06T03:59:56;8.80;1.00
23597;DHT22;40226;50.874;4.394;2023-04-06T04:02:21;8.80;1.00
23597;DHT22;40226;50.874;4.394;2023-04-06T04:04:47;8.80;4.40
23597;DHT22;40226;50.874;4.394;2023-04-06T04:07:12;8.80;1.00
23597;DHT22;40226;50.874;4.394;2023-04-06T04:09:38;8.70;46.20
23597;DHT22;40226;50.874;4.394;2023-04-06T04:12:03;8.70;95.50
23597;DHT22;40226;50.874;4.394;2023-04-06T04:14:29;8.80;92.00
23597;DHT22;40226;50.874;4.394;2023-04-06T04:16:55;8.80;88.50
23597;DHT22;40226;50.874;4.394;2023-04-06T04:19:21;8.80;99.90
23597;DHT22;40226;50.874;4.394;2023-04-06T04:21:46;8.80;99.90
23597;DHT22;40226;50.874;4.394;2023-04-06T04:24:13;8.80;99.90
23597;DHT22;40226;50.874;4.394;2023-04-06T04:26:39;8.90;99.90
23597;DHT22;40226;50.874;4.394;2023-04-06T04:29:05;8.90;99.90
23597;DHT22;40226;50.874;4.394;2023-04-06T04:31:31;8.80;99.90
23597;DHT22;40226;50.874;4.394;2023-04-06T04:33:57;8.80;99.90
23597;DHT22;40226;50.874;4.394;2023-04-06T04:36:23;8.80;99.90
23597;DHT22;40226;50.874;4.394;2023-04-06T04:38:51;8.80;99.90
23597;DHT22;40226;50.874;4.394;2023-04-06T04:41:16;9.00;99.90
23597;DHT22;40226;50.874;4.394;2023-04-06T04:43:42;9.00;99.90
23597;DHT22;40226;50.874;4.394;2023-04-06T04:46:08;8.90;1.00
23597;DHT22;40226;50.874;4.394;2023-04-06T04:48:33;8.90;1.00
23597;DHT22;40226;50.874;4.394;2023-04-06T04:50:59;9.00;1.00
23597;DHT22;40226;50.874;4.394;2023-04-06T04:53:25;8.90;99.90
23597;DHT22;40226;50.874;4.394;2023-04-06T04:55:51;8.80;99.90
23597;DHT22;40226;50.874;4.394;2023-04-06T04:58:16;8.90;1.00
23597;DHT22;40226;50.874;4.394;2023-04-06T05:00:44;8.90;1.00
23597;DHT22;40226;50.874;4.394;2023-04-06T05:03:23;8.90;1.00
23597;DHT22;40226;50.874;4.394;2023-04-06T05:05:48;8.90;1.00
23597;DHT22;40226;50.874;4.394;2023-04-06T05:08:15;8.90;50.30
23597;DHT22;40226;50.874;4.394;2023-04-06T05:10:40;9.10;1.00
23597;DHT22;40226;50.874;4.394;2023-04-06T05:13:06;9.20;1.00
23597;DHT22;40226;50.874;4.394;2023-04-06T05:15:32;9.00;99.90
23597;DHT22;40226;50.874;4.394;2023-04-06T05:18:00;9.00;1.00
23597;DHT22;40226;50.874;4.394;2023-04-06T05:20:26;8.90;1.00
23597;DHT22;40226;50.874;4.394;2023-04-06T05:22:53;8.90;78.10
23597;DHT22;40226;50.874;4.394;2023-04-06T05:25:19;8.80;99.90
23597;DHT22;40226;50.874;4.394;2023-04-06T05:27:44;8.80;1.00
23597;DHT22;40226;50.874;4.394;2023-04-06T05:30:10;8.80;1.00
23597;DHT22;40226;50.874;4.394;2023-04-06T05:32:36;8.90;1.00
23597;DHT22;40226;50.874;4.394;2023-04-06T05:35:02;8.80;1.00
23597;DHT22;40226;50.874;4.394;2023-04-06T05:37:28;8.70;99.90
23597;DHT22;40226;50.874;4.394;2023-04-06T05:39:53;8.60;99.90
23597;DHT22;40226;50.874;4.394;2023-04-06T05:42:19;8.70;99.90
23597;DHT22;40226;50.874;4.394;2023-04-06T05:44:45;8.70;99.90
23597;DHT22;40226;50.874;4.394;2023-04-06T05:47:10;8.70;99.90
23597;DHT22;40226;50.874;4.394;2023-04-06T05:49:36;8.70;1.00
23597;DHT22;40226;50.874;4.394;2023-04-06T05:52:02;8.70;1.00
23597;DHT22;40226;50.874;4.394;2023-04-06T05:54:27;8.70;1.00
23597;DHT22;40226;50.874;4.394;2023-04-06T05:56:53;8.60;99.90
23597;DHT22;40226;50.874;4.394;2023-04-06T05:59:18;8.70;1.00
23597;DHT22;40226;50.874;4.394;2023-04-06T06:01:44;8.70;99.90
23597;DHT22;40226;50.874;4.394;2023-04-06T06:04:10;8.70;99.90
23597;DHT22;40226;50.874;4.394;2023-04-06T06:06:35;8.70;1.00
23597;DHT22;40226;50.874;4.394;2023-04-06T06:09:02;8.70;1.00
23597;DHT22;40226;50.874;4.394;2023-04-06T06:11:29;8.90;1.00
23597;DHT22;40226;50.874;4.394;2023-04-06T06:13:55;9.00;99.90
23597;DHT22;40226;50.874;4.394;2023-04-06T06:16:21;9.00;99.90
23597;DHT22;40226;50.874;4.394;2023-04-06T06:18:47;8.80;1.00
23597;DHT22;40226;50.874;4.394;2023-04-06T06:21:13;8.80;1.00
23597;DHT22;40226;50.874;4.394;2023-04-06T06:23:41;8.90;99.90
23597;DHT22;40226;50.874;4.394;2023-04-06T06:26:07;9.00;99.90
23597;DHT22;40226;50.874;4.394;2023-04-06T06:28:32;9.10;99.90
23597;DHT22;40226;50.874;4.394;2023-04-06T06:30:58;9.00;99.90
23597;DHT22;40226;50.874;4.394;2023-04-06T06:33:24;8.90;1.00
23597;DHT22;40226;50.874;4.394;2023-04-06T06:35:51;8.90;99.90
23597;DHT22;40226;50.874;4.394;2023-04-06T06:38:17;8.70;1.00
23597;DHT22;40226;50.874;4.394;2023-04-06T06:40:43;8.50;1.00
23597;DHT22;40226;50.874;4.394;2023-04-06T06:43:08;8.30;1.00
23597;DHT22;40226;50.874;4.394;2023-04-06T06:45:34;8.20;1.00
23597;DHT22;40226;50.874;4.394;2023-04-06T06:48:00;8.20;1.00
23597;DHT22;40226;50.874;4.394;2023-04-06T06:50:27;8.20;1.00
23597;DHT22;40226;50.874;4.394;2023-04-06T06:52:52;8.30;1.00
23597;DHT22;40226;50.874;4.394;2023-04-06T06:55:18;8.30;12.00
23597;DHT22;40226;50.874;4.394;2023-04-06T06:57:44;8.30;20.60
23597;DHT22;40226;50.874;4.394;2023-04-06T07:00:12;8.20;29.40
23597;DHT22;40226;50.874;4.394;2023-04-06T07:02:38;8.20;43.50
23597;DHT22;40226;50.874;4.394;2023-04-06T07:05:05;8.30;52.40
23597;DHT22;40226;50.874;4.394;2023-04-06T07:07:32;8.30;60.50
23597;DHT22;40226;50.874;4.394;2023-04-06T07:09:58;8.40;59.50
23597;DHT22;40226;50.874;4.394;2023-04-06T07:12:24;8.30;56.10
23597;DHT22;40226;50.874;4.394;2023-04-06T07:14:50;8.20;79.00
23597;DHT22;40226;50.874;4.394;2023-04-06T07:17:15;8.20;86.00
23597;DHT22;40226;50.874;4.394;2023-04-06T07:19:41;8.30;94.00
23597;DHT22;40226;50.874;4.394;2023-04-06T07:22:06;8.40;96.20
23597;DHT22;40226;50.874;4.394;2023-04-06T07:24:32;8.40;93.90
23597;DHT22;40226;50.874;4.394;2023-04-06T07:27:01;8.60;98.50
23597;DHT22;40226;50.874;4.394;2023-04-06T07:29:27;8.70;96.00
23597;DHT22;40226;50.874;4.394;2023-04-06T07:31:53;8.50;99.90
23597;DHT22;40226;50.874;4.394;2023-04-06T07:34:19;8.30;99.90
23597;DHT22;40226;50.874;4.394;2023-04-06T07:36:45;8.30;99.90
23597;DHT22;40226;50.874;4.394;2023-04-06T07:39:11;8.40;99.90
23597;DHT22;40226;50.874;4.394;2023-04-06T07:41:36;8.30;99.90
23597;DHT22;40226;50.874;4.394;2023-04-06T07:44:02;8.30;99.90
23597;DHT22;40226;50.874;4.394;2023-04-06T07:46:28;8.30;99.90
23597;DHT22;40226;50.874;4.394;2023-04-06T07:48:54;8.20;99.90
23597;DHT22;40226;50.874;4.394;2023-04-06T07:51:19;8.20;99.90
23597;DHT22;40226;50.874;4.394;2023-04-06T07:53:45;8.30;99.90
23597;DHT22;40226;50.874;4.394;2023-04-06T07:56:11;8.30;99.90
23597;DHT22;40226;50.874;4.394;2023-04-06T07:58:37;8.20;99.90
23597;DHT22;40226;50.874;4.394;2023-04-06T08:01:03;8.20;99.90
23597;DHT22;40226;50.874;4.394;2023-04-06T08:03:29;8.20;99.90
23597;DHT22;40226;50.874;4.394;2023-04-06T08:05:55;8.10;99.90
23597;DHT22;40226;50.874;4.394;2023-04-06T08:08:20;8.10;99.90
23597;DHT22;40226;50.874;4.394;2023-04-06T08:10:47;8.10;99.90
23597;DHT22;40226;50.874;4.394;2023-04-06T08:13:13;8.10;99.90
23597;DHT22;40226;50.874;4.394;2023-04-06T08:15:39;8.30;99.90
23597;DHT22;40226;50.874;4.394;2023-04-06T08:18:05;8.30;99.90
23597;DHT22;40226;50.874;4.394;2023-04-06T08:20:31;8.30;99.90
23597;DHT22;40226;50.874;4.394;2023-04-06T08:22:56;8.30;99.90
23597;DHT22;40226;50.874;4.394;2023-04-06T08:25:22;8.30;99.90
23597;DHT22;40226;50.874;4.394;2023-04-06T08:27:47;8.20;99.90
23597;DHT22;40226;50.874;4.394;2023-04-06T08:30:13;8.10;99.90
23597;DHT22;40226;50.874;4.394;2023-04-06T08:32:41;8.20;99.90
23597;DHT22;40226;50.874;4.394;2023-04-06T08:35:07;8.20;99.90
23597;DHT22;40226;50.874;4.394;2023-04-06T08:37:33;8.10;99.90
23597;DHT22;40226;50.874;4.394;2023-04-06T08:39:59;8.10;99.90
23597;DHT22;40226;50.874;4.394;2023-04-06T08:42:25;8.00;99.90
23597;DHT22;40226;50.874;4.394;2023-04-06T08:44:51;8.00;99.90
23597;DHT22;40226;50.874;4.394;2023-04-06T08:47:18;8.00;99.90
23597;DHT22;40226;50.874;4.394;2023-04-06T08:49:45;8.00;99.90
23597;DHT22;40226;50.874;4.394;2023-04-06T08:52:12;8.00;99.90
23597;DHT22;40226;50.874;4.394;2023-04-06T08:54:38;8.00;99.90
23597;DHT22;40226;50.874;4.394;2023-04-06T08:57:04;8.00;99.90
23597;DHT22;40226;50.874;4.394;2023-04-06T08:59:31;8.10;99.90
23597;DHT22;40226;50.874;4.394;2023-04-06T09:01:58;8.10;99.90
23597;DHT22;40226;50.874;4.394;2023-04-06T09:04:24;8.20;99.90
23597;DHT22;40226;50.874;4.394;2023-04-06T09:06:51;8.30;99.90
23597;DHT22;40226;50.874;4.394;2023-04-06T09:09:17;8.30;99.90
23597;DHT22;40226;50.874;4.394;2023-04-06T09:11:45;8.30;99.90
23597;DHT22;40226;50.874;4.394;2023-04-06T09:14:11;8.30;99.90
23597;DHT22;40226;50.874;4.394;2023-04-06T09:16:44;8.40;99.90
23597;DHT22;40226;50.874;4.394;2023-04-06T09:19:11;8.50;99.90
23597;DHT22;40226;50.874;4.394;2023-04-06T09:21:37;8.40;99.90
23597;DHT22;40226;50.874;4.394;2023-04-06T09:24:03;8.50;99.90
23597;DHT22;40226;50.874;4.394;2023-04-06T09:26:29;8.50;99.90
23597;DHT22;40226;50.874;4.394;2023-04-06T09:28:57;8.60;99.90
23597;DHT22;40226;50.874;4.394;2023-04-06T09:31:25;8.60;99.90
23597;DHT22;40226;50.874;4.394;2023-04-06T09:33:51;8.60;99.90
23597;DHT22;40226;50.874;4.394;2023-04-06T09:36:28;8.70;99.90
23597;DHT22;40226;50.874;4.394;2023-04-06T09:39:04;8.60;99.90
23597;DHT22;40226;50.874;4.394;2023-04-06T09:41:32;8.60;99.90
23597;DHT22;40226;50.874;4.394;2023-04-06T09:44:09;8.60;99.90
23597;DHT22;40226;50.874;4.394;2023-04-06T09:46:43;8.50;99.90
23597;DHT22;40226;50.874;4.394;2023-04-06T09:49:10;8.60;99.90
23597;DHT22;40226;50.874;4.394;2023-04-06T09:51:36;8.50;99.90
23597;DHT22;40226;50.874;4.394;2023-04-06T09:54:02;8.50;99.90
23597;DHT22;40226;50.874;4.394;2023-04-06T10:05:22;8.40;99.90
23597;DHT22;40226;50.874;4.394;2023-04-06T10:07:53;8.40;99.90
23597;DHT22;40226;50.874;4.394;2023-04-06T10:10:19;8.40;99.90
23597;DHT22;40226;50.874;4.394;2023-04-06T10:12:47;8.40;99.90
23597;DHT22;40226;50.874;4.394;2023-04-06T10:15:13;8.50;99.90
23597;DHT22;40226;50.874;4.394;2023-04-06T10:17:39;8.40;99.90
23597;DHT22;40226;50.874;4.394;2023-04-06T10:22:52;8.60;99.90
23597;DHT22;40226;50.874;4.394;2023-04-06T10:25:32;8.60;99.90
23597;DHT22;40226;50.874;4.394;2023-04-06T10:28:09;8.60;99.90
23597;DHT22;40226;50.874;4.394;2023-04-06T10:30:42;8.40;99.90
23597;DHT22;40226;50.874;4.394;2023-04-06T10:33:19;8.50;99.90
23597;DHT22;40226;50.874;4.394;2023-04-06T10:35:46;8.60;99.90
23597;DHT22;40226;50.874;4.394;2023-04-06T10:38:12;8.60;99.90
23597;DHT22;40226;50.874;4.394;2023-04-06T10:40:41;8.60;99.90
23597;DHT22;40226;50.874;4.394;2023-04-06T10:43:13;8.70;99.90
23597;DHT22;40226;50.874;4.394;2023-04-06T10:45:40;8.80;99.90
23597;DHT22;40226;50.874;4.394;2023-04-06T10:48:18;8.80;99.90
23597;DHT22;40226;50.874;4.394;2023-04-06T10:50:48;8.80;99.90
23597;DHT22;40226;50.874;4.394;2023-04-06T10:53:22;8.80;99.90
23597;DHT22;40226;50.874;4.394;2023-04-06T10:55:49;8.90;99.90
23597;DHT22;40226;50.874;4.394;2023-04-06T10:58:15;8.80;99.90
23597;DHT22;40226;50.874;4.394;2023-04-06T11:00:45;8.80;99.90
23597;DHT22;40226;50.874;4.394;2023-04-06T11:03:11;8.70;99.90
23597;DHT22;40226;50.874;4.394;2023-04-06T11:05:37;8.70;99.90
23597;DHT22;40226;50.874;4.394;2023-04-06T11:08:02;8.80;99.90
23597;DHT22;40226;50.874;4.394;2023-04-06T11:10:28;8.80;99.90
23597;DHT22;40226;50.874;4.394;2023-04-06T11:12:56;8.90;99.90
23597;DHT22;40226;50.874;4.394;2023-04-06T11:15:22;9.10;99.90
23597;DHT22;40226;50.874;4.394;2023-04-06T11:17:47;9.00;99.90
23597;DHT22;40226;50.874;4.394;2023-04-06T11:20:14;9.10;99.90
23597;DHT22;40226;50.874;4.394;2023-04-06T11:22:53;9.10;99.90
23597;DHT22;40226;50.874;4.394;2023-04-06T11:25:19;9.20;99.90
23597;DHT22;40226;50.874;4.394;2023-04-06T11:27:46;9.30;99.90
23597;DHT22;40226;50.874;4.394;2023-04-06T11:30:13;9.60;99.90
23597;DHT22;40226;50.874;4.394;2023-04-06T11:32:41;9.40;99.90
23597;DHT22;40226;50.874;4.394;2023-04-06T11:35:23;9.40;99.90
23597;DHT22;40226;50.874;4.394;2023-04-06T11:37:50;9.50;99.90
23597;DHT22;40226;50.874;4.394;2023-04-06T11:40:21;9.50;99.90
23597;DHT22;40226;50.874;4.394;2023-04-06T11:42:52;9.60;99.90
23597;DHT22;40226;50.874;4.394;2023-04-06T11:45:19;9.50;99.90
23597;DHT22;40226;50.874;4.394;2023-04-06T11:47:44;9.50;99.90
23597;DHT22;40226;50.874;4.394;2023-04-06T11:50:14;9.60;99.90
23597;DHT22;40226;50.874;4.394;2023-04-06T11:52:40;9.50;99.90
23597;DHT22;40226;50.874;4.394;2023-04-06T11:55:16;9.40;99.90
23597;DHT22;40226;50.874;4.394;2023-04-06T11:57:43;9.10;99.90
23597;DHT22;40226;50.874;4.394;2023-04-06T12:00:09;9.20;99.90
23597;DHT22;40226;50.874;4.394;2023-04-06T12:02:39;9.20;99.90
23597;DHT22;40226;50.874;4.394;2023-04-06T12:05:05;9.30;99.90
23597;DHT22;40226;50.874;4.394;2023-04-06T12:07:32;9.20;99.90
23597;DHT22;40226;50.874;4.394;2023-04-06T12:10:01;9.10;99.90
23597;DHT22;40226;50.874;4.394;2023-04-06T12:12:27;9.30;99.90
23597;DHT22;40226;50.874;4.394;2023-04-06T12:14:53;9.20;99.90
23597;DHT22;40226;50.874;4.394;2023-04-06T12:17:19;9.20;99.90
23597;DHT22;40226;50.874;4.394;2023-04-06T12:19:45;9.40;99.90
23597;DHT22;40226;50.874;4.394;2023-04-06T12:22:11;9.60;99.90
23597;DHT22;40226;50.874;4.394;2023-04-06T12:24:36;9.70;99.90
23597;DHT22;40226;50.874;4.394;2023-04-06T12:27:02;9.70;99.90
23597;DHT22;40226;50.874;4.394;2023-04-06T12:29:28;9.70;99.90
23597;DHT22;40226;50.874;4.394;2023-04-06T12:31:54;9.50;99.90
23597;DHT22;40226;50.874;4.394;2023-04-06T12:34:19;9.30;99.90
23597;DHT22;40226;50.874;4.394;2023-04-06T12:36:45;9.30;99.90
23597;DHT22;40226;50.874;4.394;2023-04-06T12:39:10;9.30;99.90
23597;DHT22;40226;50.874;4.394;2023-04-06T12:41:36;9.20;99.90
23597;DHT22;40226;50.874;4.394;2023-04-06T12:44:02;9.20;99.90
23597;DHT22;40226;50.874;4.394;2023-04-06T12:46:29;9.30;99.90
23597;DHT22;40226;50.874;4.394;2023-04-06T12:48:57;9.20;99.90
23597;DHT22;40226;50.874;4.394;2023-04-06T12:51:27;9.00;99.90
23597;DHT22;40226;50.874;4.394;2023-04-06T12:53:53;9.00;99.90
23597;DHT22;40226;50.874;4.394;2023-04-06T12:56:18;8.90;99.90
23597;DHT22;40226;50.874;4.394;2023-04-06T12:58:44;9.00;99.90
23597;DHT22;40226;50.874;4.394;2023-04-06T13:01:10;8.90;99.90
23597;DHT22;40226;50.874;4.394;2023-04-06T13:03:40;8.90;99.90
23597;DHT22;40226;50.874;4.394;2023-04-06T13:06:06;8.90;99.90
23597;DHT22;40226;50.874;4.394;2023-04-06T13:08:34;8.90;99.90
23597;DHT22;40226;50.874;4.394;2023-04-06T13:10:59;9.00;99.90
23597;DHT22;40226;50.874;4.394;2023-04-06T13:13:27;9.00;99.90
23597;DHT22;40226;50.874;4.394;2023-04-06T13:15:55;9.00;99.90
23597;DHT22;40226;50.874;4.394;2023-04-06T13:18:23;8.90;99.90
23597;DHT22;40226;50.874;4.394;2023-04-06T13:20:49;8.90;99.90
23597;DHT22;40226;50.874;4.394;2023-04-06T13:23:15;9.00;99.90
23597;DHT22;40226;50.874;4.394;2023-04-06T13:25:41;9.00;99.90
23597;DHT22;40226;50.874;4.394;2023-04-06T13:28:07;9.00;99.90
23597;DHT22;40226;50.874;4.394;2023-04-06T13:30:33;9.00;99.90
23597;DHT22;40226;50.874;4.394;2023-04-06T13:32:59;9.10;99.90
23597;DHT22;40226;50.874;4.394;2023-04-06T13:35:25;9.20;99.90
23597;DHT22;40226;50.874;4.394;2023-04-06T13:37:51;9.20;99.90
23597;DHT22;40226;50.874;4.394;2023-04-06T13:40:17;9.10;99.90
23597;DHT22;40226;50.874;4.394;2023-04-06T13:42:43;9.10;99.90
23597;DHT22;40226;50.874;4.394;2023-04-06T13:45:10;9.10;99.90
23597;DHT22;40226;50.874;4.394;2023-04-06T13:47:36;9.20;99.90
23597;DHT22;40226;50.874;4.394;2023-04-06T13:50:02;9.30;99.90
23597;DHT22;40226;50.874;4.394;2023-04-06T13:52:28;9.30;99.90
23597;DHT22;40226;50.874;4.394;2023-04-06T13:54:54;9.20;99.90
23597;DHT22;40226;50.874;4.394;2023-04-06T13:57:20;9.30;99.90
23597;DHT22;40226;50.874;4.394;2023-04-06T13:59:45;9.30;99.90
23597;DHT22;40226;50.874;4.394;2023-04-06T14:02:11;9.20;99.90
23597;DHT22;40226;50.874;4.394;2023-04-06T14:04:37;9.20;99.90
23597;DHT22;40226;50.874;4.394;2023-04-06T14:07:03;9.20;99.90
23597;DHT22;40226;50.874;4.394;2023-04-06T14:09:29;9.20;99.90
23597;DHT22;40226;50.874;4.394;2023-04-06T14:11:56;9.20;99.90
23597;DHT22;40226;50.874;4.394;2023-04-06T14:14:23;9.20;99.90
23597;DHT22;40226;50.874;4.394;2023-04-06T14:16:48;9.20;99.90
23597;DHT22;40226;50.874;4.394;2023-04-06T14:19:15;9.20;99.90
23597;DHT22;40226;50.874;4.394;2023-04-06T14:21:43;9.30;99.90
23597;DHT22;40226;50.874;4.394;2023-04-06T14:24:09;9.30;99.90
23597;DHT22;40226;50.874;4.394;2023-04-06T14:26:36;9.20;99.90
23597;DHT22;40226;50.874;4.394;2023-04-06T14:29:02;9.20;99.90
23597;DHT22;40226;50.874;4.394;2023-04-06T14:31:28;9.20;99.90
23597;DHT22;40226;50.874;4.394;2023-04-06T14:33:54;9.30;99.90
23597;DHT22;40226;50.874;4.394;2023-04-06T14:36:20;9.30;99.90
23597;DHT22;40226;50.874;4.394;2023-04-06T14:38:45;9.30;99.90
23597;DHT22;40226;50.874;4.394;2023-04-06T14:41:18;9.30;99.90
23597;DHT22;40226;50.874;4.394;2023-04-06T14:43:45;9.30;99.90
23597;DHT22;40226;50.874;4.394;2023-04-06T14:46:11;9.30;99.90
23597;DHT22;40226;50.874;4.394;2023-04-06T14:48:36;9.40;99.90
23597;DHT22;40226;50.874;4.394;2023-04-06T14:51:02;9.40;99.90
23597;DHT22;40226;50.874;4.394;2023-04-06T14:53:28;9.40;99.90
23597;DHT22;40226;50.874;4.394;2023-04-06T14:55:55;9.50;99.90
23597;DHT22;40226;50.874;4.394;2023-04-06T14:58:22;9.50;99.90
23597;DHT22;40226;50.874;4.394;2023-04-06T15:00:48;9.50;99.90
23597;DHT22;40226;50.874;4.394;2023-04-06T15:03:15;9.60;99.90
23597;DHT22;40226;50.874;4.394;2023-04-06T15:05:41;9.60;99.90
23597;DHT22;40226;50.874;4.394;2023-04-06T15:08:07;9.70;99.90
23597;DHT22;40226;50.874;4.394;2023-04-06T15:10:35;9.60;99.90
23597;DHT22;40226;50.874;4.394;2023-04-06T15:13:01;9.60;99.90
23597;DHT22;40226;50.874;4.394;2023-04-06T15:15:28;9.60;99.90
23597;DHT22;40226;50.874;4.394;2023-04-06T15:17:53;9.70;99.90
23597;DHT22;40226;50.874;4.394;2023-04-06T15:20:19;9.70;99.90
23597;DHT22;40226;50.874;4.394;2023-04-06T15:22:45;9.80;99.90
23597;DHT22;40226;50.874;4.394;2023-04-06T15:25:10;9.90;99.90
23597;DHT22;40226;50.874;4.394;2023-04-06T15:27:36;10.00;99.90
23597;DHT22;40226;50.874;4.394;2023-04-06T15:30:02;10.00;99.90
23597;DHT22;40226;50.874;4.394;2023-04-06T15:32:28;10.10;99.90
23597;DHT22;40226;50.874;4.394;2023-04-06T15:34:54;10.30;99.90
23597;DHT22;40226;50.874;4.394;2023-04-06T15:37:21;10.30;99.90
23597;DHT22;40226;50.874;4.394;2023-04-06T15:39:46;10.30;99.90
23597;DHT22;40226;50.874;4.394;2023-04-06T15:42:12;10.30;99.90
23597;DHT22;40226;50.874;4.394;2023-04-06T15:44:37;10.40;99.90
23597;DHT22;40226;50.874;4.394;2023-04-06T15:47:03;10.30;99.90
23597;DHT22;40226;50.874;4.394;2023-04-06T15:49:29;10.30;99.90
23597;DHT22;40226;50.874;4.394;2023-04-06T15:51:55;10.30;99.90
23597;DHT22;40226;50.874;4.394;2023-04-06T15:54:21;10.20;99.90